Track Мизонов Сергей

Time Latitude Longitude Accuracy (66% radius in meters) Altitude (meters) Speed (km/hour) Bearing (degrees) Battery (%) GPS flag
10:10:32 60.370971 29.556463 8 77.603670849864 0.28278070688248 327.38333129883 85 1 delete
10:10:23 60.370973 29.556477 12 77.783365027382 0 327.38333129883 85 1 delete
10:10:11 60.370973 29.556477 8 77.682400305937 0 327.38333129883 85 1 delete
10:10:02 60.370973 29.556477 8 77.659323776312 0 327.38333129883 85 1 delete
10:09:53 60.370973 29.556477 12 77.619829522218 0 327.38333129883 85 1 delete
10:09:41 60.370973 29.556477 8 77.493132411649 0 327.38333129883 85 1 delete
10:09:29 60.370973 29.556477 12 77.530634623496 0 327.38333129883 85 1 delete
10:09:17 60.370973 29.556477 12 77.494108799993 0 327.38333129883 85 1 delete
10:09:05 60.370973 29.556477 16 77.523611371261 0 327.38333129883 85 1 delete
10:08:56 60.370973 29.556477 12 77.60172295683 0 327.38333129883 85 1 delete
10:08:44 60.370973 29.556477 12 77.933074616272 0 327.38333129883 85 1 delete
10:08:32 60.370973 29.556477 12 78.188201504033 0 327.38333129883 85 1 delete
10:08:20 60.370973 29.556477 16 78.72470436655 0 327.38333129883 85 1 delete
10:08:11 60.370973 29.556477 8 79.322818149694 0 327.38333129883 85 1 delete
10:07:59 60.370973 29.556477 16 79.838400536759 0 327.38333129883 85 1 delete
10:07:47 60.370973 29.556477 12 80.080899497037 0 327.38333129883 85 1 delete
10:07:35 60.370973 29.556477 6 79.938388136787 0 327.38333129883 85 1 delete
10:07:32 60.370973 29.556477 8 79.921284340191 0.026696054264903 327.38333129883 85 1 delete
10:07:23 60.370930 29.556538 8 80.208454723793 0 332.60189819336 85 1 delete
10:07:20 60.370930 29.556538 16 80.253222791055 0.57784485816956 332.60189819336 85 1 delete
10:07:11 60.370916 29.556540 8 81.216063304244 0.65137541294098 298.26412963867 85 1 delete
10:07:02 60.370902 29.556613 8 81.593154851854 1.5720801353455 280.03958129883 85 1 delete
10:06:59 60.370867 29.556736 12 81.894169846082 1.3544425964355 318.43194580078 85 1 delete
10:06:56 60.370821 29.556818 8 82.212739199449 0.80179268121719 302.92395019531 85 1 delete
10:06:50 60.370783 29.556857 12 83.104006069558 0.87926512956619 20.924781799316 85 1 delete
10:06:47 60.370768 29.556860 8 83.834386726167 1.2328605651855 305.84457397461 85 1 delete
10:06:41 60.370722 29.556940 12 84.581821389607 0 70.268173217773 85 1 delete
10:06:39 60.370688 29.557026 12 85.082074742735 0 287.45388793945 85 1 delete
10:06:36 60.370674 29.557157 12 86.158089984503 4.9548554420471 307.76016235352 85 1 delete
10:06:33 60.370680 29.557315 8 88.718475251846 5.1731014251709 251.88520812988 85 1 delete
10:06:30 60.370748 29.557432 8 91.440858560239 5.1783075332642 181.09443664551 85 1 delete
10:06:27 60.370895 29.557361 8 95.379304876406 4.7883353233337 144.12600708008 85 1 delete
10:06:24 60.371005 29.557262 12 98.361005169684 4.3962144851685 168.63510131836 85 1 delete
10:06:21 60.371055 29.557326 12 97.074157037648 4.1073536872864 222.41622924805 85 1 delete
10:06:18 60.371007 29.557594 12 94.936913810005 3.8190860748291 290.91287231445 85 1 delete
10:06:15 60.370906 29.557878 12 94.766685807994 3.5856068134308 306.67056274414 85 1 delete
10:06:12 60.370808 29.558082 16 95.989709719103 3.4011826515198 319.61904907227 85 1 delete
10:06:09 60.370693 29.558272 12 97.564353418566 3.077644109726 311.89566040039 85 1 delete
10:06:06 60.370560 29.558428 12 98.063197204236 3.059800863266 316.37503051758 85 1 delete
10:06:03 60.370476 29.558502 16 98.491748641683 3.3997101783752 288.64227294922 85 1 delete
10:06:00 60.370423 29.558556 12 98.946182667235 3.7394127845764 5.7774229049683 85 1 delete
10:05:57 60.370233 29.558639 8 99.027913036219 3.5724403858185 322.41702270508 85 1 delete
10:05:54 60.370075 29.558764 12 98.886009438464 3.3744959831238 357.3447265625 85 1 delete
10:05:51 60.369931 29.558766 12 98.555198445129 3.3825461864471 33.632312774658 85 1 delete
10:05:48 60.369800 29.558769 12 98.226888539044 3.1442716121674 348.1413269043 85 1 delete
10:05:45 60.369728 29.558843 12 98.159844920993 0 263.49697875977 85 1 delete
10:05:42 60.369676 29.558950 12 98.152969699165 3.6467323303223 340.37066650391 85 1 delete
10:05:39 60.369507 29.559057 12 97.507003465773 3.2515952587128 344.37359619141 85 1 delete
10:05:36 60.369392 29.559116 8 97.414651521875 3.1537752151489 333.99871826172 85 1 delete
10:05:33 60.369309 29.559219 8 97.413043951628 3.2372512817383 345.88427734375 85 1 delete